Aérodrome :
LOGIN :

S'inscrire | Disclaimer

   EN    FR    IT 

 










Légende :    VFR   VFR Marginal   IFR   IFR Intensif   IFR Très Intensif
Visi : 
Plafond : 
>= 8 km
>= 3000ft
5 à 8 km
1000 à 3000 ft
1500m à 5 km
500 à 1000 ft
800 à 1500m
200 à 500 ft
< 800m
< 200 ft
Symboles :   Orages  Brouillard  Fortes neiges  Fortes précipitations  Vent > 20 kt
SIGMETs :   Divers  Orages  Givrage  Turbulence  Onde Orograph.  Cendres Volcan.







- Altitude de l'aérodrome : 142 ft
- Code IATA : ALC


LEAL - Alicante

DERNIER METAR :
  • 180300Z VRB01KT CAVOK 19/18 Q1016 NOSIG

METARs EXPIRÉS :
  • 180230Z 31003KT CAVOK 18/17 Q1017 NOSIG
  • 180200Z 31002KT CAVOK 18/17 Q1017 NOSIG
  • 180130Z 00000KT CAVOK 19/18 Q1017 NOSIG
  • 180100Z VRB01KT CAVOK 19/18 Q1018 NOSIG
  • 180030Z 00000KT CAVOK 20/18 Q1018 NOSIG

TAF TAF LEAL
Valide du 18 à 00h jusqu'au 19 à 00h UTC


172300Z 1800/1824 VRB03KT 9999 SCT020 BKN050 TX27/1812Z TN17/1806Z
BECMG 1809/1812 19013KT
BECMG 1816/1818 27010KT
TEMPO 1810/1822 4000 SHRA BKN020 FEW025CB
PROB30
TEMPO 1814/1821 3000 TSRA BKN016 SCT020CB
Pas de NOTAMs connus pour ce terrain.



MET'MAP, la Météo Aéronautique d'un coup d'oeil ! - Copyright ORBIFLY Décembre 2007 - Disclaimer

ORBIFLY MET'MAP TEAM :

Programmation & Développement : Alexandra Zaïnal
Conception & Développement : Baudouin d'Aumeries
Co-Programmation & Développement : Marc-Olivier Méhu
Soutien technique & logistique : Manuel Goepfert

Contact : metmap@orbifly.com




SOURCES & CREDITS :

   NOAA